ΕΜΥ, Εθνική Μετεωρολογική Υπηρεσία - Δελτία Καιρού, Προγνώσεις

ΑΕΡΟΝΑΥΤΙΛΙΑ

GREEK AIRPORTS CODES

TAF LGTT 270700Z 2709/2718 03010KT 9999 FEW030 PROB30 2712/2718 FEW018TCU SCT030 BECMG 2710/2712 17008KT=

EUROPEAN AIRPORTS CODES

LFPO 271430Z 31006KT 280V340 9999 BKN034 BKN045 21/13 Q1024NOSIG=